Time;durP1;ratioP1;P1;durP2;ratioP2;P2;SDS_P1;SDS_P2;PMS_P1;PMS_P2;Temp;Humidity;BMP_temperature;BMP_pressure;BME280_temperature;BME280_humidity;BME280_pressure;Samples;Min_cycle;Max_cycle;Signal;HPM_P1;HPM_P2
2023/04/19 00:01:16;;;;;;;24.98;23.00;;;9.20;99.90;;;;;;4967492;28;20137;-78
2023/04/19 00:03:43;;;;;;;26.33;24.17;;;9.10;99.90;;;;;;4988255;28;20109;-76
2023/04/19 00:06:13;;;;;;;25.63;23.20;;;9.10;99.90;;;;;;4976290;28;20113;-77
2023/04/19 00:08:43;;;;;;;25.80;23.70;;;9.10;99.90;;;;;;5004448;23;20649;-74
2023/04/19 00:11:09;;;;;;;25.55;23.50;;;9.10;99.90;;;;;;4985788;28;20042;-75
2023/04/19 00:13:37;;;;;;;25.52;23.50;;;9.10;99.90;;;;;;4968345;28;20069;-75
2023/04/19 00:16:04;;;;;;;24.35;22.45;;;9.00;99.90;;;;;;4985259;28;20038;-75
2023/04/19 00:18:31;;;;;;;25.42;23.25;;;9.00;99.90;;;;;;4948658;28;20492;-74
2023/04/19 00:20:57;;;;;;;24.58;22.58;;;8.90;99.90;;;;;;4983798;28;20046;-75
2023/04/19 00:23:24;;;;;;;25.27;23.30;;;8.90;99.90;;;;;;4964951;28;20050;-75
2023/04/19 00:25:51;;;;;;;25.42;23.25;;;8.90;99.90;;;;;;4984844;28;20041;-75
2023/04/19 00:28:18;;;;;;;25.85;23.70;;;8.80;99.90;;;;;;4969861;28;20042;-74
2023/04/19 00:30:44;;;;;;;26.83;24.50;;;8.80;99.90;;;;;;4984831;28;20038;-75
2023/04/19 00:33:11;;;;;;;25.10;23.30;;;8.80;99.90;;;;;;4965995;28;20092;-75
2023/04/19 00:35:41;;;;;;;26.10;23.70;;;8.70;99.90;;;;;;4964417;28;20415;-74
2023/04/19 00:38:08;;;;;;;25.98;23.88;;;8.70;99.90;;;;;;4998729;28;20053;-75
2023/04/19 00:40:37;;;;;;;26.60;24.50;;;8.70;99.90;;;;;;4985316;28;20069;-74
2023/04/19 00:43:04;;;;;;;26.13;24.02;;;8.80;99.90;;;;;;5002969;28;20243;-74
2023/04/19 00:45:34;;;;;;;25.42;23.52;;;8.70;99.90;;;;;;5007104;28;20057;-75
2023/04/19 00:48:00;;;;;;;27.48;25.25;;;8.60;99.90;;;;;;4967843;28;20054;-76
2023/04/19 00:50:27;;;;;;;26.15;24.08;;;8.60;99.90;;;;;;4967974;28;20042;-74
2023/04/19 00:52:56;;;;;;;25.25;23.42;;;8.50;99.90;;;;;;4952523;28;20045;-76
2023/04/19 00:55:24;;;;;;;26.20;24.17;;;8.50;99.90;;;;;;4983292;28;20042;-74
2023/04/19 00:57:51;;;;;;;26.77;24.73;;;8.50;99.90;;;;;;4985657;28;20133;-75
2023/04/19 01:00:18;;;;;;;26.35;24.10;;;8.50;99.90;;;;;;4970340;28;20141;-79
2023/04/19 01:02:46;;;;;;;25.45;23.45;;;8.60;99.90;;;;;;4986534;28;20116;-73
2023/04/19 01:05:14;;;;;;;25.45;23.45;;;8.60;99.90;;;;;;4968646;28;20046;-76
2023/04/19 01:07:41;;;;;;;25.63;23.55;;;8.50;99.90;;;;;;4965295;28;20607;-76
2023/04/19 01:10:09;;;;;;;24.55;22.65;;;8.40;99.90;;;;;;4965209;28;20039;-75
2023/04/19 01:12:35;;;;;;;24.60;22.73;;;8.40;99.90;;;;;;4989510;28;20517;-76
2023/04/19 01:15:02;;;;;;;24.23;22.42;;;8.40;99.90;;;;;;4988697;28;20033;-76
2023/04/19 01:17:31;;;;;;;24.15;22.35;;;8.30;99.90;;;;;;4967680;28;20062;-74
2023/04/19 01:20:00;;;;;;;24.98;22.77;;;8.30;99.90;;;;;;4985800;28;20046;-77
2023/04/19 01:22:28;;;;;;;25.20;23.10;;;8.20;99.90;;;;;;4980189;28;20240;-78
2023/04/19 01:24:56;;;;;;;23.13;21.38;;;8.10;99.90;;;;;;4972876;28;20553;-74
2023/04/19 01:27:23;;;;;;;24.83;22.83;;;8.10;99.90;;;;;;4969332;28;20141;-76
2023/04/19 01:29:49;;;;;;;24.88;22.88;;;8.00;99.90;;;;;;4996398;28;20042;-76
2023/04/19 01:32:16;;;;;;;25.05;23.05;;;7.90;99.90;;;;;;4978639;28;20613;-77
2023/04/19 01:34:43;;;;;;;24.35;22.30;;;7.90;99.90;;;;;;4982017;28;20048;-75
2023/04/19 01:37:09;;;;;;;24.65;22.67;;;7.80;99.90;;;;;;4999213;28;20038;-74
2023/04/19 01:39:36;;;;;;;24.98;22.80;;;7.80;99.90;;;;;;4987906;28;20628;-74
2023/04/19 01:42:03;;;;;;;23.98;22.02;;;7.80;99.90;;;;;;4989235;28;20128;-79
2023/04/19 01:44:30;;;;;;;24.17;22.27;;;7.80;99.90;;;;;;4979768;28;20046;-74
2023/04/19 01:46:59;;;;;;;25.00;22.98;;;7.80;99.90;;;;;;4977007;28;20053;-77
2023/04/19 01:49:25;;;;;;;23.45;21.73;;;7.80;99.90;;;;;;4991031;28;20042;-75
2023/04/19 01:51:53;;;;;;;24.30;22.48;;;7.80;99.90;;;;;;4995473;28;20038;-77
2023/04/19 01:54:19;;;;;;;24.13;22.23;;;7.90;99.90;;;;;;5007223;28;20034;-76
2023/04/19 01:56:48;;;;;;;22.50;20.80;;;7.90;99.90;;;;;;4986835;28;20038;-74
2023/04/19 01:59:15;;;;;;;22.20;20.63;;;7.80;99.90;;;;;;4987534;28;20077;-75
2023/04/19 02:01:42;;;;;;;25.02;22.92;;;7.80;99.90;;;;;;4988791;28;20081;-75
2023/04/19 02:04:08;;;;;;;24.08;22.15;;;7.90;99.90;;;;;;4971855;28;20054;-74
2023/04/19 02:06:35;;;;;;;22.60;21.02;;;7.90;99.90;;;;;;4987567;28;20046;-75
2023/04/19 02:09:03;;;;;;;21.58;20.08;;;7.90;99.90;;;;;;4987926;28;20044;-74
2023/04/19 02:11:30;;;;;;;24.95;22.73;;;7.80;99.90;;;;;;4967993;28;20574;-75
2023/04/19 02:13:57;;;;;;;26.52;23.95;;;7.80;99.90;;;;;;4991397;28;20045;-75
2023/04/19 02:16:25;;;;;;;25.23;23.17;;;7.80;99.90;;;;;;4980069;28;20054;-74
2023/04/19 02:18:53;;;;;;;26.52;24.42;;;7.80;99.90;;;;;;4983734;28;20038;-75
2023/04/19 02:21:20;;;;;;;25.73;23.55;;;7.80;99.90;;;;;;4963589;28;20066;-74
2023/04/19 02:23:46;;;;;;;26.55;24.15;;;7.80;99.90;;;;;;4965896;28;20136;-75
2023/04/19 02:26:13;;;;;;;26.65;24.25;;;7.80;99.90;;;;;;4965301;28;20057;-75
2023/04/19 02:28:42;;;;;;;26.00;23.75;;;7.80;99.90;;;;;;4967368;28;20081;-74
2023/04/19 02:31:08;;;;;;;27.08;24.77;;;7.80;99.90;;;;;;4977475;28;20069;-74
2023/04/19 02:33:35;;;;;;;26.58;24.38;;;7.80;99.90;;;;;;4974692;28;20044;-74
2023/04/19 02:36:02;;;;;;;27.58;25.20;;;7.90;99.90;;;;;;4993486;28;20054;-75
2023/04/19 02:38:29;;;;;;;26.98;24.77;;;8.00;99.90;;;;;;4973769;28;20502;-75
2023/04/19 02:40:55;;;;;;;27.67;25.38;;;8.00;99.90;;;;;;4973438;28;20041;-75
2023/04/19 02:43:22;;;;;;;27.77;25.42;;;8.10;99.90;;;;;;4972791;28;20373;-75
2023/04/19 02:45:50;;;;;;;27.27;24.80;;;8.00;99.90;;;;;;4959689;28;20066;-75
2023/04/19 02:48:17;;;;;;;27.25;24.95;;;8.00;99.90;;;;;;4959662;28;20054;-74
2023/04/19 02:50:43;;;;;;;25.45;23.55;;;7.90;99.90;;;;;;4966885;28;20042;-75
2023/04/19 02:53:10;;;;;;;27.67;25.27;;;7.80;99.90;;;;;;4983585;28;20699;-75
2023/04/19 02:55:37;;;;;;;28.33;25.70;;;7.70;99.90;;;;;;4973891;28;20128;-75
2023/04/19 02:58:13;;;;;;;27.80;25.17;;;7.70;99.90;;;;;;4988570;28;20042;-75
2023/04/19 03:00:49;;;;;;;27.92;25.27;;;7.70;99.90;;;;;;4987008;28;20048;-75
2023/04/19 03:03:19;;;;;;;27.52;25.17;;;7.60;99.90;;;;;;4988905;28;20048;-75
2023/04/19 03:05:46;;;;;;;26.63;24.25;;;7.60;99.90;;;;;;4985457;28;20038;-75
2023/04/19 03:08:13;;;;;;;26.77;24.35;;;7.60;99.90;;;;;;4986869;28;20047;-74
2023/04/19 03:10:40;;;;;;;27.17;24.60;;;7.50;99.90;;;;;;4973735;28;20053;-75
2023/04/19 03:13:08;;;;;;;26.63;24.17;;;7.40;99.90;;;;;;4972339;28;20824;-75
2023/04/19 03:15:34;;;;;;;24.73;22.83;;;7.40;99.90;;;;;;4983298;28;20065;-75
2023/04/19 03:18:01;;;;;;;24.80;22.90;;;7.30;99.90;;;;;;4988845;28;20077;-75
2023/04/19 03:20:28;;;;;;;25.63;23.42;;;7.20;99.90;;;;;;4984342;28;20149;-75
2023/04/19 03:22:56;;;;;;;25.98;23.75;;;7.20;99.90;;;;;;4962445;28;20053;-74
2023/04/19 03:25:24;;;;;;;25.80;23.58;;;7.20;99.90;;;;;;4983950;28;20093;-75
2023/04/19 03:27:58;;;;;;;24.63;22.67;;;7.30;99.90;;;;;;4958495;28;20058;-74
2023/04/19 03:30:48;;;;;;;25.35;23.13;;;7.10;99.90;;;;;;4980409;28;20077;-75
2023/04/19 03:33:15;;;;;;;25.05;23.00;;;7.10;99.90;;;;;;4949394;28;20049;-75
2023/04/19 03:35:43;;;;;;;24.55;22.75;;;7.00;99.90;;;;;;4969134;28;20042;-74
2023/04/19 03:38:10;;;;;;;25.73;23.30;;;6.90;99.90;;;;;;4983756;28;20057;-75
2023/04/19 03:40:37;;;;;;;25.05;22.88;;;6.90;99.90;;;;;;4979244;28;20052;-75
2023/04/19 03:43:05;;;;;;;26.10;23.70;;;6.70;99.90;;;;;;4991153;28;20124;-75
2023/04/19 03:45:33;;;;;;;24.35;22.42;;;6.70;99.90;;;;;;4988972;28;20058;-75
2023/04/19 03:47:59;;;;;;;25.50;23.40;;;6.70;99.90;;;;;;5006628;28;20530;-75
2023/04/19 03:50:29;;;;;;;25.75;23.33;;;6.80;99.90;;;;;;4980302;28;20074;-75
2023/04/19 03:52:56;;;;;;;25.65;23.45;;;6.70;99.90;;;;;;4971068;28;20034;-75
2023/04/19 03:55:22;;;;;;;25.15;23.02;;;6.70;99.90;;;;;;4966894;28;20062;-75
2023/04/19 03:57:49;;;;;;;25.33;23.23;;;6.70;99.90;;;;;;4945239;28;20034;-75
2023/04/19 04:00:22;;;;;;;25.38;23.05;;;6.70;99.90;;;;;;4967547;28;20104;-75
2023/04/19 04:02:54;;;;;;;26.25;24.05;;;6.50;99.90;;;;;;4971141;28;20046;-75
2023/04/19 04:05:21;;;;;;;31.02;23.08;;;6.50;99.90;;;;;;4964350;28;20038;-75
2023/04/19 04:07:48;;;;;;;25.33;23.33;;;6.40;99.90;;;;;;4967903;28;20477;-75
2023/04/19 04:10:15;;;;;;;25.23;23.17;;;6.50;99.90;;;;;;4963805;28;20042;-75
2023/04/19 04:12:42;;;;;;;25.23;23.08;;;6.50;99.90;;;;;;4953637;28;20046;-75
2023/04/19 04:15:13;;;;;;;24.20;21.85;;;6.50;99.90;;;;;;4967731;28;20251;-75
2023/04/19 04:17:45;;;;;;;23.63;21.83;;;6.30;99.90;;;;;;4951042;28;20153;-75
2023/04/19 04:20:12;;;;;;;24.63;22.50;;;6.30;99.90;;;;;;4961959;28;20050;-75
2023/04/19 04:22:41;;;;;;;28.02;25.92;;;6.20;99.90;;;;;;4987101;28;20121;-74
2023/04/19 04:25:10;;;;;;;24.25;22.25;;;6.10;99.90;;;;;;4971661;28;20202;-75
2023/04/19 04:27:38;;;;;;;25.27;23.08;;;6.00;99.90;;;;;;4951507;28;20125;-75
2023/04/19 04:30:10;;;;;;;25.58;22.90;;;5.90;99.90;;;;;;4964596;28;20046;-75
2023/04/19 04:32:37;;;;;;;24.55;22.30;;;5.80;99.90;;;;;;4985295;28;20133;-75
2023/04/19 04:35:05;;;;;;;29.25;27.00;;;5.80;99.90;;;;;;4988196;28;20041;-74
2023/04/19 04:37:39;;;;;;;30.10;27.90;;;5.80;99.90;;;;;;4982972;28;20696;-74
2023/04/19 04:40:07;;;;;;;28.58;26.70;;;5.70;99.90;;;;;;4990492;28;20060;-75
2023/04/19 04:42:34;;;;;;;29.50;27.20;;;5.70;99.90;;;;;;4980068;28;20073;-75
2023/04/19 04:45:02;;;;;;;28.63;26.42;;;5.60;99.90;;;;;;4992918;28;20051;-74
2023/04/19 04:47:31;;;;;;;29.02;26.73;;;5.60;99.90;;;;;;4965896;28;20133;-74
2023/04/19 04:50:01;;;;;;;29.17;27.10;;;5.70;99.90;;;;;;4989999;28;20137;-74
2023/04/19 04:52:29;;;;;;;30.13;27.48;;;5.60;99.90;;;;;;4981672;28;20069;-75
2023/04/19 04:55:05;;;;;;;29.25;26.88;;;5.60;99.90;;;;;;4986625;28;20458;-74
2023/04/19 04:57:34;;;;;;;29.00;26.42;;;5.70;99.90;;;;;;4987384;28;20042;-75
2023/04/19 05:00:05;;;;;;;29.15;27.05;;;5.60;99.90;;;;;;4990529;28;20073;-75
2023/04/19 05:02:40;;;;;;;28.50;26.38;;;5.60;99.90;;;;;;4974372;28;20105;-75
2023/04/19 05:05:10;;;;;;;29.17;26.95;;;5.70;99.90;;;;;;4993366;28;20049;-75
2023/04/19 05:07:36;;;;;;;30.13;27.83;;;5.80;99.90;;;;;;4968757;28;20058;-75
2023/04/19 05:10:03;;;;;;;29.45;27.23;;;5.70;99.90;;;;;;4983536;28;20058;-74
2023/04/19 05:12:40;;;;;;;28.52;26.50;;;5.50;99.90;;;;;;4984173;28;20038;-75
2023/04/19 05:15:07;;;;;;;29.83;27.50;;;5.60;99.90;;;;;;4991010;28;20285;-75
2023/04/19 05:17:35;;;;;;;27.58;25.58;;;5.50;99.90;;;;;;4977264;28;20044;-75
2023/04/19 05:20:04;;;;;;;28.63;26.52;;;5.30;99.90;;;;;;4993906;28;20092;-75
2023/04/19 05:22:31;;;;;;;30.45;27.90;;;5.20;99.90;;;;;;4992485;28;20156;-74
2023/04/19 05:24:59;;;;;;;29.90;27.70;;;5.00;99.90;;;;;;4973322;28;20065;-75
2023/04/19 05:27:25;;;;;;;30.48;28.27;;;5.00;99.90;;;;;;4979513;28;20056;-75
2023/04/19 05:29:53;;;;;;;31.10;28.73;;;5.00;99.90;;;;;;4988030;28;20136;-75
2023/04/19 05:32:21;;;;;;;29.45;27.25;;;4.80;99.90;;;;;;4987844;28;20038;-74
2023/04/19 05:34:54;;;;;;;30.77;28.38;;;4.70;99.90;;;;;;4984513;28;20069;-74
2023/04/19 05:37:23;;;;;;;30.42;27.90;;;4.60;99.90;;;;;;4982039;28;20037;-75
2023/04/19 05:39:49;;;;;;;30.38;27.83;;;4.60;99.90;;;;;;4977482;28;20046;-75
2023/04/19 05:42:17;;;;;;;29.60;27.60;;;4.60;99.90;;;;;;4987987;28;20132;-75
2023/04/19 05:44:44;;;;;;;30.13;28.17;;;4.70;99.90;;;;;;5008487;28;20056;-74
2023/04/19 05:47:11;;;;;;;30.48;28.25;;;4.80;99.90;;;;;;4997112;28;20041;-75
2023/04/19 05:50:03;;;;;;;29.85;27.70;;;4.90;99.90;;;;;;4996089;28;20038;-75
2023/04/19 05:52:34;;;;;;;30.63;28.33;;;4.90;99.90;;;;;;4991375;28;20034;-74
2023/04/19 05:55:02;;;;;;;29.63;27.45;;;4.80;99.90;;;;;;5006626;28;20121;-74
2023/04/19 05:57:31;;;;;;;29.88;27.52;;;4.90;99.90;;;;;;4985910;28;20076;-74
2023/04/19 05:59:57;;;;;;;28.48;26.48;;;4.90;99.90;;;;;;4994198;28;20045;-74
2023/04/19 06:02:39;;;;;;;29.55;27.27;;;5.00;99.90;;;;;;4988771;28;20646;-74
2023/04/19 06:05:08;;;;;;;29.60;27.25;;;4.90;99.90;;;;;;4984819;28;20060;-74
2023/04/19 06:07:37;;;;;;;28.42;26.52;;;4.90;99.90;;;;;;4972226;28;20893;-75
2023/04/19 06:10:16;;;;;;;29.88;27.25;;;5.10;99.90;;;;;;4962614;28;20047;-75
2023/04/19 06:12:43;;;;;;;28.55;26.67;;;5.10;99.90;;;;;;4973403;28;20042;-74
2023/04/19 06:15:10;;;;;;;28.25;26.23;;;5.00;99.90;;;;;;4991217;28;20048;-75
2023/04/19 06:17:37;;;;;;;27.83;25.63;;;4.90;99.90;;;;;;4985420;28;20561;-75
2023/04/19 06:20:06;;;;;;;27.95;25.80;;;5.00;99.90;;;;;;5014361;28;20045;-75
2023/04/19 06:22:33;;;;;;;28.45;26.20;;;4.90;99.90;;;;;;4995621;28;20550;-75
2023/04/19 06:25:00;;;;;;;28.20;26.33;;;4.80;99.90;;;;;;4982528;28;20068;-75
2023/04/19 06:27:27;;;;;;;28.08;25.83;;;4.90;99.90;;;;;;4983293;28;20107;-74
2023/04/19 06:29:54;;;;;;;28.25;26.35;;;4.80;99.90;;;;;;4994093;28;20033;-75
2023/04/19 06:32:20;;;;;;;28.83;26.50;;;4.70;99.90;;;;;;4988525;28;20053;-75
2023/04/19 06:34:47;;;;;;;25.63;23.92;;;4.80;99.90;;;;;;4983521;28;20049;-75
2023/04/19 06:37:14;;;;;;;26.17;24.25;;;4.80;99.90;;;;;;5000249;28;20041;-74
2023/04/19 06:39:40;;;;;;;27.75;25.65;;;4.90;99.90;;;;;;4982870;28;20601;-75
2023/04/19 06:42:07;;;;;;;26.52;24.70;;;5.00;99.90;;;;;;4978843;28;20042;-74
2023/04/19 06:44:34;;;;;;;27.90;25.58;;;5.00;99.90;;;;;;4988524;28;20045;-75
2023/04/19 06:47:00;;;;;;;27.40;25.38;;;5.00;99.90;;;;;;4999206;28;20124;-74
2023/04/19 06:49:27;;;;;;;30.63;28.58;;;4.90;99.90;;;;;;4974565;28;20041;-75
2023/04/19 06:51:54;;;;;;;30.08;28.13;;;5.00;99.90;;;;;;5015170;28;20278;-75
2023/04/19 06:54:21;;;;;;;30.45;28.10;;;5.30;99.90;;;;;;4984209;28;20049;-74
2023/04/19 06:56:49;;;;;;;30.02;27.95;;;5.30;99.90;;;;;;5002870;28;20661;-74
2023/04/19 06:59:18;;;;;;;30.60;28.25;;;5.40;99.90;;;;;;4990937;28;20037;-74
2023/04/19 07:01:45;;;;;;;27.75;25.75;;;5.40;99.90;;;;;;4988959;28;20073;-74
2023/04/19 07:04:13;;;;;;;29.73;27.50;;;5.50;99.90;;;;;;4992363;28;20040;-74
2023/04/19 07:06:41;;;;;;;28.23;26.25;;;5.40;99.90;;;;;;4993909;28;20120;-75
2023/04/19 07:09:08;;;;;;;29.75;27.77;;;5.50;99.90;;;;;;4991989;28;20042;-75
2023/04/19 07:11:34;;;;;;;29.88;27.55;;;5.40;99.90;;;;;;4977611;28;20045;-75
2023/04/19 07:14:01;;;;;;;30.98;28.60;;;5.50;99.90;;;;;;4978810;28;20041;-74
2023/04/19 07:16:28;;;;;;;30.50;28.50;;;5.50;99.90;;;;;;4981740;28;20145;-76
2023/04/19 07:18:55;;;;;;;31.77;29.70;;;5.60;99.90;;;;;;4989462;28;20029;-75
2023/04/19 07:21:24;;;;;;;31.80;29.63;;;5.70;99.90;;;;;;5001762;28;20070;-73
2023/04/19 07:23:50;;;;;;;29.67;27.88;;;6.00;99.90;;;;;;4990019;28;20053;-74
2023/04/19 07:26:17;;;;;;;31.02;28.63;;;6.30;99.90;;;;;;4989023;28;20057;-76
2023/04/19 07:28:44;;;;;;;29.88;27.88;;;6.40;99.90;;;;;;4985990;28;20080;-73
2023/04/19 07:31:15;;;;;;;30.25;28.15;;;6.30;99.90;;;;;;4997731;28;20037;-75
2023/04/19 07:33:42;;;;;;;31.60;29.48;;;6.40;99.90;;;;;;4977286;28;20049;-75
2023/04/19 07:36:10;;;;;;;30.63;28.70;;;6.30;99.90;;;;;;4965702;28;20070;-76
2023/04/19 07:38:37;;;;;;;31.83;30.02;;;6.40;99.90;;;;;;4985039;28;20080;-76
2023/04/19 07:41:04;;;;;;;31.63;29.83;;;6.60;99.90;;;;;;4994876;28;20050;-73
2023/04/19 07:43:31;;;;;;;32.42;30.02;;;7.10;99.90;;;;;;4979539;28;20503;-74
2023/04/19 07:45:57;;;;;;;30.25;28.42;;;7.10;99.90;;;;;;5006792;28;20045;-73
2023/04/19 07:48:24;;;;;;;31.42;29.52;;;7.10;99.90;;;;;;4984755;28;20046;-74
2023/04/19 07:50:51;;;;;;;31.73;29.73;;;7.00;99.90;;;;;;4979352;28;20045;-74
2023/04/19 07:53:18;;;;;;;33.45;31.05;;;7.00;99.90;;;;;;4994842;28;20038;-75
2023/04/19 07:55:44;;;;;;;30.85;28.95;;;7.20;99.90;;;;;;4972175;28;20561;-75
2023/04/19 07:58:11;;;;;;;32.05;30.02;;;7.20;99.90;;;;;;4981383;28;20137;-74
2023/04/19 08:00:38;;;;;;;31.23;29.42;;;7.20;99.90;;;;;;4980486;28;20176;-73
2023/04/19 08:03:04;;;;;;;32.35;30.13;;;7.10;99.90;;;;;;4989693;28;20080;-73
2023/04/19 08:05:33;;;;;;;33.03;30.60;;;7.10;99.90;;;;;;4999252;28;20041;-75
2023/04/19 08:07:59;;;;;;;33.30;31.00;;;7.20;99.90;;;;;;5001144;28;20053;-75
2023/04/19 08:10:27;;;;;;;34.20;31.95;;;7.40;99.90;;;;;;4993274;28;20037;-75
2023/04/19 08:12:54;;;;;;;29.50;27.45;;;7.40;99.90;;;;;;4993017;28;20072;-73
2023/04/19 08:15:33;;;;;;;30.38;28.23;;;7.50;99.90;;;;;;5001117;28;20041;-75
2023/04/19 08:18:03;;;;;;;30.50;28.35;;;7.50;99.90;;;;;;5000875;28;20052;-73
2023/04/19 08:20:31;;;;;;;29.67;27.67;;;7.60;99.90;;;;;;4985476;28;20041;-74
2023/04/19 08:22:59;;;;;;;30.08;28.10;;;7.70;99.90;;;;;;4986824;28;20042;-75
2023/04/19 08:25:36;;;;;;;31.30;29.20;;;8.00;99.90;;;;;;4975600;28;20117;-77
2023/04/19 08:28:04;;;;;;;31.98;29.75;;;7.90;99.90;;;;;;4994635;28;20046;-75
2023/04/19 08:30:31;;;;;;;29.42;27.42;;;8.00;99.90;;;;;;4994280;28;20057;-77
2023/04/19 08:32:57;;;;;;;31.23;29.13;;;8.40;99.90;;;;;;5005489;28;20093;-75
2023/04/19 08:35:24;;;;;;;31.90;29.67;;;8.70;99.90;;;;;;4987821;28;20047;-78
2023/04/19 08:37:51;;;;;;;35.47;33.03;;;8.80;99.90;;;;;;4982452;28;20136;-74
2023/04/19 08:40:18;;;;;;;35.22;33.20;;;8.50;99.90;;;;;;4983279;28;20042;-76
2023/04/19 08:42:45;;;;;;;35.78;33.67;;;8.60;99.90;;;;;;4985249;28;20604;-74
2023/04/19 08:45:12;;;;;;;37.45;35.15;;;8.80;99.90;;;;;;4993621;28;20042;-75
2023/04/19 08:47:43;;;;;;;36.72;34.45;;;8.70;99.90;;;;;;4983073;28;20117;-74
2023/04/19 08:50:26;;;;;;;36.15;33.80;;;9.30;99.90;;;;;;4988131;28;20097;-77
2023/04/19 08:53:06;;;;;;;36.95;34.78;;;9.30;99.90;;;;;;4970883;28;20655;-73
2023/04/19 08:55:40;;;;;;;37.65;35.17;;;8.90;99.90;;;;;;5005918;28;20072;-76
2023/04/19 08:58:28;;;;;;;36.35;34.28;;;8.80;99.90;;;;;;4988996;28;20042;-74
2023/04/19 09:00:59;;;;;;;40.45;38.13;;;9.00;99.90;;;;;;4975397;28;20040;-73
2023/04/19 09:03:26;;;;;;;36.75;34.65;;;8.90;99.90;;;;;;4979604;28;20783;-76
2023/04/19 09:05:53;;;;;;;39.33;36.58;;;9.00;99.90;;;;;;4971198;28;20211;-77
2023/04/19 09:08:21;;;;;;;39.53;37.03;;;9.30;99.90;;;;;;4998038;28;20042;-75
2023/04/19 09:10:56;;;;;;;39.97;37.35;;;9.50;99.90;;;;;;4990555;28;20056;-77
2023/04/19 09:13:24;;;;;;;39.45;37.05;;;9.70;99.90;;;;;;4978263;28;20148;-73
2023/04/19 09:15:52;;;;;;;39.33;36.85;;;9.30;99.90;;;;;;4977373;28;20383;-73
2023/04/19 09:18:19;;;;;;;40.47;37.83;;;9.30;99.90;;;;;;4981261;28;20042;-74
2023/04/19 09:20:46;;;;;;;41.25;38.80;;;9.40;99.90;;;;;;4977515;28;20878;-73
2023/04/19 09:23:18;;;;;;;38.90;36.70;;;9.50;99.90;;;;;;4981226;28;20046;-77
2023/04/19 09:26:00;;;;;;;41.55;39.05;;;9.70;99.90;;;;;;4984809;28;20038;-75
2023/04/19 09:28:56;;;;;;;39.83;37.58;;;9.70;99.90;;;;;;4982506;28;22382;-75
2023/04/19 09:31:24;;;;;;;39.38;37.08;;;9.80;99.90;;;;;;4975223;28;20076;-75
2023/04/19 09:34:17;;;;;;;39.88;37.33;;;10.00;99.90;;;;;;4981560;28;20042;-75
2023/04/19 09:36:44;;;;;;;26.60;24.50;;;10.50;99.90;;;;;;5008273;28;20058;-73
2023/04/19 09:39:13;;;;;;;40.65;37.83;;;9.90;99.90;;;;;;4969429;28;20089;-75
2023/04/19 09:41:53;;;;;;;40.50;38.00;;;9.90;99.90;;;;;;5001843;28;20053;-76
2023/04/19 09:44:20;;;;;;;39.58;37.05;;;9.90;99.90;;;;;;5008403;28;20226;-75
2023/04/19 09:46:51;;;;;;;41.28;38.53;;;10.30;99.90;;;;;;4976769;28;20626;-74
2023/04/19 09:49:23;;;;;;;40.65;38.17;;;10.30;99.90;;;;;;4978904;28;20080;-73
2023/04/19 09:52:09;;;;;;;41.78;39.28;;;10.50;99.90;;;;;;4993713;28;20541;-77
2023/04/19 09:54:36;;;;;;;41.15;38.70;;;9.90;99.90;;;;;;4977949;28;20042;-73
2023/04/19 09:57:03;;;;;;;40.47;37.30;;;9.70;99.90;;;;;;4977464;28;20049;-77
2023/04/19 09:59:30;;;;;;;40.75;38.13;;;9.50;99.90;;;;;;4994007;28;20060;-77
2023/04/19 10:01:59;;;;;;;39.78;37.38;;;9.30;99.90;;;;;;4966156;28;20048;-77
2023/04/19 10:04:27;;;;;;;40.88;38.28;;;9.60;99.90;;;;;;4987652;28;20507;-76
2023/04/19 10:07:14;;;;;;;40.03;37.63;;;10.20;99.90;;;;;;4976803;28;20068;-74
2023/04/19 10:09:45;;;;;;;42.38;39.47;;;10.00;99.90;;;;;;4987461;28;20085;-74
2023/04/19 10:12:15;;;;;;;42.47;39.70;;;10.20;99.90;;;;;;4999341;28;20261;-73
2023/04/19 10:14:47;;;;;;;42.00;39.42;;;10.40;99.90;;;;;;4980711;28;20053;-72
2023/04/19 10:17:14;;;;;;;43.17;39.97;;;10.40;99.90;;;;;;5000159;28;20038;-75
2023/04/19 10:19:43;;;;;;;41.05;38.45;;;10.50;99.90;;;;;;4986850;28;20142;-76
2023/04/19 10:22:11;;;;;;;42.63;40.08;;;10.40;99.90;;;;;;4995356;28;20414;-72
2023/04/19 10:24:38;;;;;;;41.28;38.47;;;10.40;99.90;;;;;;4999674;28;20042;-73
2023/04/19 10:27:12;;;;;;;41.72;38.80;;;10.70;99.90;;;;;;5004423;28;20305;-72
2023/04/19 10:29:59;;;;;;;40.95;38.22;;;10.80;99.90;;;;;;4979410;28;20052;-75
2023/04/19 10:32:27;;;;;;;40.88;37.92;;;10.30;99.90;;;;;;4970230;28;20143;-75
2023/04/19 10:34:59;;;;;;;40.38;37.88;;;10.20;99.90;;;;;;4978574;28;20050;-73
2023/04/19 10:37:26;;;;;;;41.85;39.15;;;10.20;99.90;;;;;;4998996;28;20073;-75
2023/04/19 10:39:53;;;;;;;40.95;38.40;;;10.20;99.90;;;;;;5001120;28;20054;-72
2023/04/19 10:42:20;;;;;;;41.78;39.28;;;10.60;99.90;;;;;;4999828;28;20041;-75
2023/04/19 10:45:24;;;;;;;44.33;40.85;;;10.40;99.90;;;;;;4985985;28;20072;-72
2023/04/19 10:47:51;;;;;;;42.15;39.38;;;10.30;99.90;;;;;;4987108;28;20141;-73
2023/04/19 10:50:18;;;;;;;42.28;39.55;;;10.50;99.90;;;;;;4997632;28;20119;-76
2023/04/19 10:52:45;;;;;;;43.25;40.38;;;10.80;99.90;;;;;;4996920;28;20042;-72
2023/04/19 10:55:15;;;;;;;43.15;40.45;;;10.80;99.90;;;;;;4966406;28;20499;-74
2023/04/19 10:58:01;;;;;;;41.38;38.88;;;10.80;99.90;;;;;;4976899;28;20051;-74
2023/04/19 11:00:31;;;;;;;45.05;41.95;;;11.00;99.90;;;;;;4997674;28;20073;-74
2023/04/19 11:03:42;;;;;;;44.10;41.40;;;11.10;99.90;;;;;;4965213;28;20058;-76
2023/04/19 11:06:21;;;;;;;44.80;41.78;;;10.90;99.90;;;;;;4959153;28;20571;-72
2023/04/19 11:08:48;;;;;;;43.03;40.42;;;11.50;99.90;;;;;;4978511;28;20073;-76
2023/04/19 11:11:15;;;;;;;41.92;39.05;;;11.20;99.90;;;;;;4994120;28;20049;-72
2023/04/19 11:13:42;;;;;;;42.78;39.97;;;11.10;99.90;;;;;;4979056;28;20050;-74
2023/04/19 11:16:09;;;;;;;43.75;40.78;;;11.40;99.90;;;;;;4997304;28;20044;-73
2023/04/19 11:18:36;;;;;;;44.53;41.70;;;10.90;99.90;;;;;;4979121;28;20124;-73
2023/04/19 11:21:03;;;;;;;43.30;40.50;;;11.70;99.90;;;;;;4982104;28;20092;-73
2023/04/19 11:23:30;;;;;;;42.47;39.67;;;11.70;99.90;;;;;;4981262;28;20068;-74
2023/04/19 11:25:57;;;;;;;43.28;40.53;;;11.60;99.90;;;;;;4978708;28;20050;-72
2023/04/19 11:28:25;;;;;;;41.00;38.30;;;11.80;99.90;;;;;;4997730;28;20050;-74
2023/04/19 11:30:52;;;;;;;42.85;39.95;;;11.90;99.90;;;;;;4981718;28;20045;-72
2023/04/19 11:33:24;;;;;;;43.65;40.40;;;11.70;99.90;;;;;;4982689;28;20072;-74
2023/04/19 11:35:51;;;;;;;42.92;40.25;;;11.70;99.90;;;;;;4989079;28;20060;-73
2023/04/19 11:38:17;;;;;;;43.42;40.58;;;11.50;99.90;;;;;;4997020;28;20045;-74
2023/04/19 11:40:44;;;;;;;45.10;41.75;;;11.80;99.90;;;;;;4979325;28;20045;-75
2023/04/19 11:43:11;;;;;;;43.95;41.00;;;12.40;99.90;;;;;;4989862;28;20614;-74
2023/04/19 11:45:38;;;;;;;42.40;39.53;;;11.80;99.90;;;;;;4978830;28;20045;-74
2023/04/19 11:48:16;;;;;;;43.63;40.45;;;11.90;99.90;;;;;;4997786;28;20093;-72
2023/04/19 11:50:44;;;;;;;42.20;39.35;;;12.10;99.90;;;;;;4981586;28;20052;-73
2023/04/19 11:53:12;;;;;;;42.50;39.78;;;12.10;99.90;;;;;;4998479;28;20042;-72
2023/04/19 11:55:42;;;;;;;43.25;40.70;;;11.70;99.90;;;;;;4979496;28;20513;-73
2023/04/19 11:58:22;;;;;;;43.28;40.30;;;11.80;99.90;;;;;;4987159;28;20078;-74
2023/04/19 12:00:49;;;;;;;42.47;39.38;;;12.20;99.90;;;;;;4966081;28;20592;-74
2023/04/19 12:03:20;;;;;;;40.35;37.67;;;11.80;99.90;;;;;;4983166;28;20042;-75
2023/04/19 12:05:58;;;;;;;40.97;38.05;;;11.80;99.90;;;;;;4995824;28;20072;-75
2023/04/19 12:08:32;;;;;;;41.22;38.42;;;12.40;99.90;;;;;;4974250;28;20099;-75
2023/04/19 12:11:00;;;;;;;42.83;39.67;;;12.10;99.90;;;;;;4994301;28;20041;-75
2023/04/19 12:13:26;;;;;;;41.80;38.92;;;11.60;99.90;;;;;;4983489;28;20069;-73
2023/04/19 12:15:53;;;;;;;42.20;38.90;;;11.50;99.90;;;;;;4995448;28;20599;-74
2023/04/19 12:18:20;;;;;;;41.50;38.83;;;11.50;99.90;;;;;;4998501;28;20050;-74
2023/04/19 12:20:49;;;;;;;43.20;40.10;;;11.90;99.90;;;;;;4997326;28;20042;-74
2023/04/19 12:23:17;;;;;;;42.03;39.13;;;12.00;99.90;;;;;;4997641;28;20832;-74
2023/04/19 12:25:45;;;;;;;41.33;38.58;;;12.10;99.90;;;;;;4996042;28;20060;-73
2023/04/19 12:28:13;;;;;;;42.75;39.95;;;11.90;99.90;;;;;;4994283;28;20049;-73
2023/04/19 12:30:40;;;;;;;40.47;37.78;;;11.80;99.90;;;;;;4995663;28;20431;-74
2023/04/19 12:33:08;;;;;;;41.15;38.35;;;11.90;99.90;;;;;;4986486;28;20046;-74
2023/04/19 12:35:36;;;;;;;43.63;40.55;;;11.90;99.90;;;;;;4997050;28;20062;-74
2023/04/19 12:38:03;;;;;;;43.08;40.17;;;12.50;99.90;;;;;;4962424;28;20064;-74
2023/04/19 12:40:29;;;;;;;41.92;38.97;;;12.40;99.90;;;;;;4983710;28;20045;-74
2023/04/19 12:42:57;;;;;;;44.40;41.28;;;12.50;99.90;;;;;;4990893;28;20054;-74
2023/04/19 12:45:25;;;;;;;43.15;40.10;;;12.40;99.90;;;;;;4979819;28;20534;-73